sensor_id;sensor_type;location;lat;lon;timestamp;temperature;humidity
19224;DHT22;9746;47.180;9.776;2023-06-14T04:30:00;11.30;99.90
19224;DHT22;9746;47.180;9.776;2023-06-14T04:32:29;11.20;99.90
19224;DHT22;9746;47.180;9.776;2023-06-14T04:35:00;11.20;99.90
19224;DHT22;9746;47.180;9.776;2023-06-14T04:37:29;11.30;99.90
19224;DHT22;9746;47.180;9.776;2023-06-14T04:40:15;11.30;99.90
19224;DHT22;9746;47.180;9.776;2023-06-14T04:42:43;11.30;99.90
19224;DHT22;9746;47.180;9.776;2023-06-14T04:45:12;11.40;99.90
19224;DHT22;9746;47.180;9.776;2023-06-14T04:47:41;11.50;99.90
19224;DHT22;9746;47.180;9.776;2023-06-14T04:50:12;11.60;99.90
19224;DHT22;9746;47.180;9.776;2023-06-14T04:52:39;11.70;99.90
19224;DHT22;9746;47.180;9.776;2023-06-14T04:55:08;11.90;99.90
19224;DHT22;9746;47.180;9.776;2023-06-14T04:57:36;12.10;99.90
19224;DHT22;9746;47.180;9.776;2023-06-14T05:00:06;12.20;99.90
19224;DHT22;9746;47.180;9.776;2023-06-14T05:02:38;12.30;99.90
19224;DHT22;9746;47.180;9.776;2023-06-14T05:05:07;12.30;99.90
19224;DHT22;9746;47.180;9.776;2023-06-14T05:07:34;12.40;99.90
19224;DHT22;9746;47.180;9.776;2023-06-14T05:10:14;12.40;99.90
19224;DHT22;9746;47.180;9.776;2023-06-14T05:12:42;12.40;99.90
19224;DHT22;9746;47.180;9.776;2023-06-14T05:15:22;12.40;99.90
19224;DHT22;9746;47.180;9.776;2023-06-14T05:17:55;12.50;99.90
19224;DHT22;9746;47.180;9.776;2023-06-14T05:20:24;12.50;99.90
19224;DHT22;9746;47.180;9.776;2023-06-14T05:22:53;12.60;99.90
19224;DHT22;9746;47.180;9.776;2023-06-14T05:25:25;12.70;99.90
19224;DHT22;9746;47.180;9.776;2023-06-14T05:27:54;12.80;99.90
19224;DHT22;9746;47.180;9.776;2023-06-14T05:30:21;13.00;99.90
19224;DHT22;9746;47.180;9.776;2023-06-14T05:32:48;13.10;99.90
19224;DHT22;9746;47.180;9.776;2023-06-14T05:35:20;13.20;99.90
19224;DHT22;9746;47.180;9.776;2023-06-14T05:37:49;13.30;99.90
19224;DHT22;9746;47.180;9.776;2023-06-14T05:40:19;13.50;99.90
19224;DHT22;9746;47.180;9.776;2023-06-14T05:42:48;13.60;99.90
19224;DHT22;9746;47.180;9.776;2023-06-14T05:45:16;13.80;99.90
19224;DHT22;9746;47.180;9.776;2023-06-14T05:47:43;14.10;99.90
19224;DHT22;9746;47.180;9.776;2023-06-14T05:50:11;14.40;99.90
19224;DHT22;9746;47.180;9.776;2023-06-14T05:52:40;14.70;99.90
19224;DHT22;9746;47.180;9.776;2023-06-14T05:55:08;15.10;99.90
19224;DHT22;9746;47.180;9.776;2023-06-14T05:57:37;15.40;99.90
19224;DHT22;9746;47.180;9.776;2023-06-14T06:00:08;15.60;99.90
19224;DHT22;9746;47.180;9.776;2023-06-14T06:02:40;15.80;99.90
19224;DHT22;9746;47.180;9.776;2023-06-14T06:05:08;16.00;99.90
19224;DHT22;9746;47.180;9.776;2023-06-14T06:07:36;16.10;99.90
19224;DHT22;9746;47.180;9.776;2023-06-14T06:10:08;16.20;99.90
19224;DHT22;9746;47.180;9.776;2023-06-14T06:12:35;16.30;99.90
19224;DHT22;9746;47.180;9.776;2023-06-14T06:15:06;16.30;99.90
19224;DHT22;9746;47.180;9.776;2023-06-14T06:17:33;16.50;99.90
19224;DHT22;9746;47.180;9.776;2023-06-14T06:20:03;16.70;99.90
19224;DHT22;9746;47.180;9.776;2023-06-14T06:22:31;16.80;99.90
19224;DHT22;9746;47.180;9.776;2023-06-14T06:24:58;17.00;99.90
19224;DHT22;9746;47.180;9.776;2023-06-14T06:27:27;17.30;99.90
19224;DHT22;9746;47.180;9.776;2023-06-14T06:29:55;17.40;99.90
19224;DHT22;9746;47.180;9.776;2023-06-14T06:32:22;17.70;99.90
19224;DHT22;9746;47.180;9.776;2023-06-14T06:34:51;17.80;99.90
19224;DHT22;9746;47.180;9.776;2023-06-14T06:37:19;17.90;99.90
19224;DHT22;9746;47.180;9.776;2023-06-14T06:39:47;18.10;99.90
19224;DHT22;9746;47.180;9.776;2023-06-14T06:42:14;18.10;99.90
19224;DHT22;9746;47.180;9.776;2023-06-14T06:44:43;18.30;99.90
19224;DHT22;9746;47.180;9.776;2023-06-14T06:47:10;18.40;99.90
19224;DHT22;9746;47.180;9.776;2023-06-14T06:49:38;18.50;99.90
19224;DHT22;9746;47.180;9.776;2023-06-14T06:52:07;18.60;99.90
19224;DHT22;9746;47.180;9.776;2023-06-14T06:54:35;18.70;99.90
19224;DHT22;9746;47.180;9.776;2023-06-14T06:57:03;18.80;99.90
19224;DHT22;9746;47.180;9.776;2023-06-14T06:59:33;19.00;99.90
19224;DHT22;9746;47.180;9.776;2023-06-14T07:02:02;19.20;99.90
19224;DHT22;9746;47.180;9.776;2023-06-14T07:04:41;19.30;99.90
19224;DHT22;9746;47.180;9.776;2023-06-14T07:07:08;19.50;99.90
19224;DHT22;9746;47.180;9.776;2023-06-14T07:09:36;19.60;99.90
19224;DHT22;9746;47.180;9.776;2023-06-14T07:12:04;19.70;99.90
19224;DHT22;9746;47.180;9.776;2023-06-14T07:14:39;19.70;99.90
19224;DHT22;9746;47.180;9.776;2023-06-14T07:17:08;19.80;99.90
19224;DHT22;9746;47.180;9.776;2023-06-14T07:19:35;19.90;99.90
19224;DHT22;9746;47.180;9.776;2023-06-14T07:22:03;20.00;99.90
19224;DHT22;9746;47.180;9.776;2023-06-14T07:24:33;20.10;99.90
19224;DHT22;9746;47.180;9.776;2023-06-14T07:27:02;20.20;99.90
19224;DHT22;9746;47.180;9.776;2023-06-14T07:29:32;20.30;99.90
19224;DHT22;9746;47.180;9.776;2023-06-14T07:31:59;20.50;99.90
19224;DHT22;9746;47.180;9.776;2023-06-14T07:34:28;20.60;99.90
19224;DHT22;9746;47.180;9.776;2023-06-14T07:36:55;20.70;99.90
19224;DHT22;9746;47.180;9.776;2023-06-14T07:39:24;20.80;99.90
19224;DHT22;9746;47.180;9.776;2023-06-14T07:41:51;20.90;99.90
19224;DHT22;9746;47.180;9.776;2023-06-14T07:44:19;21.00;99.90
19224;DHT22;9746;47.180;9.776;2023-06-14T07:46:47;21.10;99.90
19224;DHT22;9746;47.180;9.776;2023-06-14T07:49:32;21.20;99.90
19224;DHT22;9746;47.180;9.776;2023-06-14T07:51:59;21.30;99.90
19224;DHT22;9746;47.180;9.776;2023-06-14T07:54:26;21.40;99.90
19224;DHT22;9746;47.180;9.776;2023-06-14T07:56:54;21.50;99.90
19224;DHT22;9746;47.180;9.776;2023-06-14T07:59:24;21.60;99.90
19224;DHT22;9746;47.180;9.776;2023-06-14T08:01:51;21.70;99.90
19224;DHT22;9746;47.180;9.776;2023-06-14T08:04:24;21.80;99.90
19224;DHT22;9746;47.180;9.776;2023-06-14T08:06:53;21.80;99.90
19224;DHT22;9746;47.180;9.776;2023-06-14T08:09:32;21.90;99.90
19224;DHT22;9746;47.180;9.776;2023-06-14T08:11:59;21.90;99.90
19224;DHT22;9746;47.180;9.776;2023-06-14T08:14:28;22.00;99.90
19224;DHT22;9746;47.180;9.776;2023-06-14T08:16:55;22.00;99.90
19224;DHT22;9746;47.180;9.776;2023-06-14T08:19:22;22.00;99.90
19224;DHT22;9746;47.180;9.776;2023-06-14T08:21:50;22.10;99.90
19224;DHT22;9746;47.180;9.776;2023-06-14T08:24:23;22.10;99.90
19224;DHT22;9746;47.180;9.776;2023-06-14T08:26:52;22.10;99.90
19224;DHT22;9746;47.180;9.776;2023-06-14T08:29:20;22.20;99.90
19224;DHT22;9746;47.180;9.776;2023-06-14T08:31:47;22.30;99.90
19224;DHT22;9746;47.180;9.776;2023-06-14T08:34:14;22.30;99.90
19224;DHT22;9746;47.180;9.776;2023-06-14T08:36:42;22.50;99.90
19224;DHT22;9746;47.180;9.776;2023-06-14T08:39:09;22.60;99.90
19224;DHT22;9746;47.180;9.776;2023-06-14T08:41:38;22.60;99.90
19224;DHT22;9746;47.180;9.776;2023-06-14T08:44:06;22.70;99.90
19224;DHT22;9746;47.180;9.776;2023-06-14T08:46:36;22.80;99.90
19224;DHT22;9746;47.180;9.776;2023-06-14T08:49:04;22.90;99.90
19224;DHT22;9746;47.180;9.776;2023-06-14T08:51:32;23.00;99.90
19224;DHT22;9746;47.180;9.776;2023-06-14T08:54:02;23.10;99.90
19224;DHT22;9746;47.180;9.776;2023-06-14T08:56:31;23.20;99.90
19224;DHT22;9746;47.180;9.776;2023-06-14T08:59:01;23.20;99.90
19224;DHT22;9746;47.180;9.776;2023-06-14T09:01:33;23.40;99.90
19224;DHT22;9746;47.180;9.776;2023-06-14T09:04:01;23.50;99.90
19224;DHT22;9746;47.180;9.776;2023-06-14T09:06:31;23.60;99.90
19224;DHT22;9746;47.180;9.776;2023-06-14T09:08:59;23.60;99.90
19224;DHT22;9746;47.180;9.776;2023-06-14T09:11:29;23.70;99.90
19224;DHT22;9746;47.180;9.776;2023-06-14T09:13:57;23.70;99.90
19224;DHT22;9746;47.180;9.776;2023-06-14T09:16:27;23.70;99.90
19224;DHT22;9746;47.180;9.776;2023-06-14T09:18:54;23.80;99.90
19224;DHT22;9746;47.180;9.776;2023-06-14T09:21:23;23.80;99.90
19224;DHT22;9746;47.180;9.776;2023-06-14T09:23:52;24.00;99.90
19224;DHT22;9746;47.180;9.776;2023-06-14T09:26:19;24.00;99.90
19224;DHT22;9746;47.180;9.776;2023-06-14T09:28:49;24.10;99.90
19224;DHT22;9746;47.180;9.776;2023-06-14T09:31:22;24.30;99.90
19224;DHT22;9746;47.180;9.776;2023-06-14T09:33:51;24.40;99.90
19224;DHT22;9746;47.180;9.776;2023-06-14T09:36:24;24.50;99.90
19224;DHT22;9746;47.180;9.776;2023-06-14T09:38:52;24.60;99.90
19224;DHT22;9746;47.180;9.776;2023-06-14T09:41:30;24.70;99.90
19224;DHT22;9746;47.180;9.776;2023-06-14T09:43:58;24.70;99.90
19224;DHT22;9746;47.180;9.776;2023-06-14T09:46:27;24.60;99.90
19224;DHT22;9746;47.180;9.776;2023-06-14T09:48:57;24.70;99.90
19224;DHT22;9746;47.180;9.776;2023-06-14T09:51:28;24.70;99.90
19224;DHT22;9746;47.180;9.776;2023-06-14T09:53:59;24.80;99.90
19224;DHT22;9746;47.180;9.776;2023-06-14T09:56:29;25.10;99.90
19224;DHT22;9746;47.180;9.776;2023-06-14T09:58:58;25.40;99.90
19224;DHT22;9746;47.180;9.776;2023-06-14T10:01:30;25.60;99.90
19224;DHT22;9746;47.180;9.776;2023-06-14T10:04:03;25.90;99.90
19224;DHT22;9746;47.180;9.776;2023-06-14T10:06:31;26.20;99.90
19224;DHT22;9746;47.180;9.776;2023-06-14T10:08:59;26.30;99.90
19224;DHT22;9746;47.180;9.776;2023-06-14T10:11:27;26.50;99.90
19224;DHT22;9746;47.180;9.776;2023-06-14T10:13:55;26.70;99.20
19224;DHT22;9746;47.180;9.776;2023-06-14T10:16:27;26.80;97.60
19224;DHT22;9746;47.180;9.776;2023-06-14T10:19:06;26.60;97.10
19224;DHT22;9746;47.180;9.776;2023-06-14T10:24:13;27.10;97.70
19224;DHT22;9746;47.180;9.776;2023-06-14T10:26:51;27.30;95.20
19224;DHT22;9746;47.180;9.776;2023-06-14T10:29:25;27.40;95.30
19224;DHT22;9746;47.180;9.776;2023-06-14T10:31:58;27.60;97.00
19224;DHT22;9746;47.180;9.776;2023-06-14T10:34:34;27.80;96.30
19224;DHT22;9746;47.180;9.776;2023-06-14T10:37:07;27.80;95.30
19224;DHT22;9746;47.180;9.776;2023-06-14T10:39:40;28.00;97.80
19224;DHT22;9746;47.180;9.776;2023-06-14T10:42:08;28.00;93.90
19224;DHT22;9746;47.180;9.776;2023-06-14T10:44:40;27.60;94.50
19224;DHT22;9746;47.180;9.776;2023-06-14T10:47:10;27.50;94.60
19224;DHT22;9746;47.180;9.776;2023-06-14T10:49:51;27.60;94.00
19224;DHT22;9746;47.180;9.776;2023-06-14T10:52:22;27.50;93.80
19224;DHT22;9746;47.180;9.776;2023-06-14T10:55:11;27.50;94.20
19224;DHT22;9746;47.180;9.776;2023-06-14T10:57:50;27.70;94.90
19224;DHT22;9746;47.180;9.776;2023-06-14T11:00:19;27.90;94.90
19224;DHT22;9746;47.180;9.776;2023-06-14T11:05:59;28.20;94.00
19224;DHT22;9746;47.180;9.776;2023-06-14T11:11:42;28.30;93.00
19224;DHT22;9746;47.180;9.776;2023-06-14T11:20:09;28.10;93.10
19224;DHT22;9746;47.180;9.776;2023-06-14T11:22:41;28.10;91.40
19224;DHT22;9746;47.180;9.776;2023-06-14T11:25:12;28.00;90.70
19224;DHT22;9746;47.180;9.776;2023-06-14T11:27:44;27.60;91.20
19224;DHT22;9746;47.180;9.776;2023-06-14T11:30:18;27.90;90.70
19224;DHT22;9746;47.180;9.776;2023-06-14T11:32:46;28.10;86.70
19224;DHT22;9746;47.180;9.776;2023-06-14T11:35:16;28.40;88.60
19224;DHT22;9746;47.180;9.776;2023-06-14T11:37:53;28.60;86.50
19224;DHT22;9746;47.180;9.776;2023-06-14T11:40:24;28.40;86.70
19224;DHT22;9746;47.180;9.776;2023-06-14T11:42:59;28.70;86.80
19224;DHT22;9746;47.180;9.776;2023-06-14T11:45:29;29.10;86.50
19224;DHT22;9746;47.180;9.776;2023-06-14T11:47:59;29.20;84.20
19224;DHT22;9746;47.180;9.776;2023-06-14T11:50:27;29.00;84.60
19224;DHT22;9746;47.180;9.776;2023-06-14T11:52:58;29.10;82.90
19224;DHT22;9746;47.180;9.776;2023-06-14T11:55:32;29.10;81.20
19224;DHT22;9746;47.180;9.776;2023-06-14T11:58:04;29.70;82.30
19224;DHT22;9746;47.180;9.776;2023-06-14T12:00:32;30.20;83.50
19224;DHT22;9746;47.180;9.776;2023-06-14T12:02:59;30.90;82.70
19224;DHT22;9746;47.180;9.776;2023-06-14T12:05:27;31.40;79.60
19224;DHT22;9746;47.180;9.776;2023-06-14T12:08:01;32.00;78.90
19224;DHT22;9746;47.180;9.776;2023-06-14T12:10:30;32.70;76.60
19224;DHT22;9746;47.180;9.776;2023-06-14T12:13:07;33.40;74.00
19224;DHT22;9746;47.180;9.776;2023-06-14T12:15:54;33.80;70.80
19224;DHT22;9746;47.180;9.776;2023-06-14T12:18:21;33.90;71.40
19224;DHT22;9746;47.180;9.776;2023-06-14T12:20:59;34.50;73.20
19224;DHT22;9746;47.180;9.776;2023-06-14T12:23:43;35.00;68.20
19224;DHT22;9746;47.180;9.776;2023-06-14T12:26:13;35.80;65.70
19224;DHT22;9746;47.180;9.776;2023-06-14T12:28:42;36.00;65.80
19224;DHT22;9746;47.180;9.776;2023-06-14T12:31:11;36.70;67.10
19224;DHT22;9746;47.180;9.776;2023-06-14T12:33:42;36.90;62.00
19224;DHT22;9746;47.180;9.776;2023-06-14T12:36:11;36.70;61.80
19224;DHT22;9746;47.180;9.776;2023-06-14T12:38:46;36.30;61.60
19224;DHT22;9746;47.180;9.776;2023-06-14T12:41:14;35.70;62.50
19224;DHT22;9746;47.180;9.776;2023-06-14T12:43:42;35.50;61.50
19224;DHT22;9746;47.180;9.776;2023-06-14T12:46:10;35.10;61.10
19224;DHT22;9746;47.180;9.776;2023-06-14T12:48:37;35.20;64.90
19224;DHT22;9746;47.180;9.776;2023-06-14T12:51:05;36.00;61.00
19224;DHT22;9746;47.180;9.776;2023-06-14T12:53:36;36.20;59.00
19224;DHT22;9746;47.180;9.776;2023-06-14T12:56:05;36.60;58.30
19224;DHT22;9746;47.180;9.776;2023-06-14T12:58:33;37.10;61.00
19224;DHT22;9746;47.180;9.776;2023-06-14T13:01:00;36.60;57.20
19224;DHT22;9746;47.180;9.776;2023-06-14T13:03:27;36.60;58.10
19224;DHT22;9746;47.180;9.776;2023-06-14T13:05:55;37.70;57.70
19224;DHT22;9746;47.180;9.776;2023-06-14T13:08:22;38.80;56.80
19224;DHT22;9746;47.180;9.776;2023-06-14T13:10:57;39.50;56.50
19224;DHT22;9746;47.180;9.776;2023-06-14T13:13:26;37.10;55.50
19224;DHT22;9746;47.180;9.776;2023-06-14T13:15:54;36.80;56.20
19224;DHT22;9746;47.180;9.776;2023-06-14T13:18:21;37.10;56.50
19224;DHT22;9746;47.180;9.776;2023-06-14T13:20:49;36.90;56.00
19224;DHT22;9746;47.180;9.776;2023-06-14T13:23:16;36.20;56.00
19224;DHT22;9746;47.180;9.776;2023-06-14T13:25:44;36.90;55.90
19224;DHT22;9746;47.180;9.776;2023-06-14T13:28:15;36.80;55.60
19224;DHT22;9746;47.180;9.776;2023-06-14T13:30:55;37.90;57.30
19224;DHT22;9746;47.180;9.776;2023-06-14T13:33:23;38.30;54.10
19224;DHT22;9746;47.180;9.776;2023-06-14T13:35:51;37.70;53.20
19224;DHT22;9746;47.180;9.776;2023-06-14T13:38:20;38.00;54.10
19224;DHT22;9746;47.180;9.776;2023-06-14T13:40:51;38.50;53.80
19224;DHT22;9746;47.180;9.776;2023-06-14T13:43:19;39.10;53.40
19224;DHT22;9746;47.180;9.776;2023-06-14T13:45:51;39.80;54.80
19224;DHT22;9746;47.180;9.776;2023-06-14T13:48:19;40.20;51.70
19224;DHT22;9746;47.180;9.776;2023-06-14T13:50:46;38.40;51.80
19224;DHT22;9746;47.180;9.776;2023-06-14T13:53:14;38.20;52.70
19224;DHT22;9746;47.180;9.776;2023-06-14T13:55:41;38.00;53.80
19224;DHT22;9746;47.180;9.776;2023-06-14T13:58:09;38.80;53.50
19224;DHT22;9746;47.180;9.776;2023-06-14T14:00:51;40.00;52.40
19224;DHT22;9746;47.180;9.776;2023-06-14T14:03:19;40.70;52.40
19224;DHT22;9746;47.180;9.776;2023-06-14T14:05:49;40.50;49.30
19224;DHT22;9746;47.180;9.776;2023-06-14T14:08:16;40.60;48.90
19224;DHT22;9746;47.180;9.776;2023-06-14T14:10:45;40.30;49.90
19224;DHT22;9746;47.180;9.776;2023-06-14T14:13:13;39.80;48.90
19224;DHT22;9746;47.180;9.776;2023-06-14T14:15:44;39.40;51.00
19224;DHT22;9746;47.180;9.776;2023-06-14T14:18:14;39.20;49.70
19224;DHT22;9746;47.180;9.776;2023-06-14T14:20:42;39.30;50.00
19224;DHT22;9746;47.180;9.776;2023-06-14T14:23:10;39.00;49.80
19224;DHT22;9746;47.180;9.776;2023-06-14T14:25:41;38.40;50.30
19224;DHT22;9746;47.180;9.776;2023-06-14T14:28:08;37.40;50.20
19224;DHT22;9746;47.180;9.776;2023-06-14T14:30:38;37.40;50.90
19224;DHT22;9746;47.180;9.776;2023-06-14T14:33:06;37.60;51.40
19224;DHT22;9746;47.180;9.776;2023-06-14T14:35:36;37.00;51.70
19224;DHT22;9746;47.180;9.776;2023-06-14T14:38:03;37.10;51.20
19224;DHT22;9746;47.180;9.776;2023-06-14T14:40:40;37.30;51.20
19224;DHT22;9746;47.180;9.776;2023-06-14T14:43:07;36.50;51.30
19224;DHT22;9746;47.180;9.776;2023-06-14T14:45:37;36.60;52.10
19224;DHT22;9746;47.180;9.776;2023-06-14T14:48:05;37.50;51.60
19224;DHT22;9746;47.180;9.776;2023-06-14T14:50:33;38.80;51.50
19224;DHT22;9746;47.180;9.776;2023-06-14T14:53:02;39.10;49.50
19224;DHT22;9746;47.180;9.776;2023-06-14T14:55:30;39.30;48.40
19224;DHT22;9746;47.180;9.776;2023-06-14T14:58:00;39.10;49.30
19224;DHT22;9746;47.180;9.776;2023-06-14T15:00:37;38.80;49.10
19224;DHT22;9746;47.180;9.776;2023-06-14T15:03:04;38.10;49.30
19224;DHT22;9746;47.180;9.776;2023-06-14T15:05:32;36.90;49.90
19224;DHT22;9746;47.180;9.776;2023-06-14T15:08:05;35.70;51.30
19224;DHT22;9746;47.180;9.776;2023-06-14T15:10:38;35.90;51.60
19224;DHT22;9746;47.180;9.776;2023-06-14T15:13:07;36.40;50.90
19224;DHT22;9746;47.180;9.776;2023-06-14T15:15:36;36.70;51.00
19224;DHT22;9746;47.180;9.776;2023-06-14T15:18:04;37.40;50.60
19224;DHT22;9746;47.180;9.776;2023-06-14T15:20:32;37.60;49.30
19224;DHT22;9746;47.180;9.776;2023-06-14T15:22:59;37.20;49.50
19224;DHT22;9746;47.180;9.776;2023-06-14T15:25:30;37.40;50.00
19224;DHT22;9746;47.180;9.776;2023-06-14T15:27:59;38.00;51.10
19224;DHT22;9746;47.180;9.776;2023-06-14T15:30:30;36.80;50.30
19224;DHT22;9746;47.180;9.776;2023-06-14T15:32:58;36.70;50.50
19224;DHT22;9746;47.180;9.776;2023-06-14T15:35:26;37.10;51.20
19224;DHT22;9746;47.180;9.776;2023-06-14T15:37:53;37.40;49.50
19224;DHT22;9746;47.180;9.776;2023-06-14T15:40:27;37.50;49.90
19224;DHT22;9746;47.180;9.776;2023-06-14T15:42:56;37.40;49.50
19224;DHT22;9746;47.180;9.776;2023-06-14T15:45:24;36.70;49.60
19224;DHT22;9746;47.180;9.776;2023-06-14T15:47:52;36.70;50.30
19224;DHT22;9746;47.180;9.776;2023-06-14T15:50:32;37.00;50.30
19224;DHT22;9746;47.180;9.776;2023-06-14T15:52:59;37.00;49.70
19224;DHT22;9746;47.180;9.776;2023-06-14T15:55:27;37.10;49.30
19224;DHT22;9746;47.180;9.776;2023-06-14T15:57:56;35.70;50.50
19224;DHT22;9746;47.180;9.776;2023-06-14T16:00:25;35.90;50.60
19224;DHT22;9746;47.180;9.776;2023-06-14T16:02:52;35.80;52.00
19224;DHT22;9746;47.180;9.776;2023-06-14T16:05:26;36.70;51.20
19224;DHT22;9746;47.180;9.776;2023-06-14T16:07:53;36.80;50.30
19224;DHT22;9746;47.180;9.776;2023-06-14T16:10:20;36.50;50.40
19224;DHT22;9746;47.180;9.776;2023-06-14T16:12:48;36.50;50.00
19224;DHT22;9746;47.180;9.776;2023-06-14T16:15:21;36.40;50.50
19224;DHT22;9746;47.180;9.776;2023-06-14T16:17:49;36.70;50.00
19224;DHT22;9746;47.180;9.776;2023-06-14T16:20:20;36.50;49.80
19224;DHT22;9746;47.180;9.776;2023-06-14T16:22:47;36.60;50.10
19224;DHT22;9746;47.180;9.776;2023-06-14T16:25:15;36.90;50.10
19224;DHT22;9746;47.180;9.776;2023-06-14T16:27:42;36.90;50.00
19224;DHT22;9746;47.180;9.776;2023-06-14T16:30:12;36.80;50.10
19224;DHT22;9746;47.180;9.776;2023-06-14T16:32:40;36.80;50.50
19224;DHT22;9746;47.180;9.776;2023-06-14T16:35:08;36.20;49.50
19224;DHT22;9746;47.180;9.776;2023-06-14T16:37:35;35.30;50.70
19224;DHT22;9746;47.180;9.776;2023-06-14T16:40:04;35.00;51.20
19224;DHT22;9746;47.180;9.776;2023-06-14T16:42:31;33.50;51.70
19224;DHT22;9746;47.180;9.776;2023-06-14T16:44:59;31.80;54.00
19224;DHT22;9746;47.180;9.776;2023-06-14T16:47:27;30.90;54.60
19224;DHT22;9746;47.180;9.776;2023-06-14T16:50:00;29.80;57.00
19224;DHT22;9746;47.180;9.776;2023-06-14T16:52:29;29.20;56.90
19224;DHT22;9746;47.180;9.776;2023-06-14T16:54:56;28.80;58.10
19224;DHT22;9746;47.180;9.776;2023-06-14T16:57:23;28.20;58.80
19224;DHT22;9746;47.180;9.776;2023-06-14T16:59:52;27.80;59.70
19224;DHT22;9746;47.180;9.776;2023-06-14T17:02:26;27.40;59.60
19224;DHT22;9746;47.180;9.776;2023-06-14T17:04:53;27.20;60.20
19224;DHT22;9746;47.180;9.776;2023-06-14T17:07:26;27.10;60.50
19224;DHT22;9746;47.180;9.776;2023-06-14T17:09:53;26.90;60.70
19224;DHT22;9746;47.180;9.776;2023-06-14T17:12:21;26.80;60.90
19224;DHT22;9746;47.180;9.776;2023-06-14T17:14:49;26.60;61.10
19224;DHT22;9746;47.180;9.776;2023-06-14T17:17:22;26.40;61.60
19224;DHT22;9746;47.180;9.776;2023-06-14T17:19:57;26.30;62.40
19224;DHT22;9746;47.180;9.776;2023-06-14T17:22:27;26.10;63.30
19224;DHT22;9746;47.180;9.776;2023-06-14T17:24:57;26.00;63.50
19224;DHT22;9746;47.180;9.776;2023-06-14T17:27:28;25.80;63.90
19224;DHT22;9746;47.180;9.776;2023-06-14T17:29:58;25.70;63.70
19224;DHT22;9746;47.180;9.776;2023-06-14T17:32:30;25.60;63.60
19224;DHT22;9746;47.180;9.776;2023-06-14T17:35:00;25.40;64.00
19224;DHT22;9746;47.180;9.776;2023-06-14T17:37:31;25.20;64.20
19224;DHT22;9746;47.180;9.776;2023-06-14T17:39:59;25.10;64.70
19224;DHT22;9746;47.180;9.776;2023-06-14T17:42:28;24.90;64.60
19224;DHT22;9746;47.180;9.776;2023-06-14T17:44:55;24.90;64.90
19224;DHT22;9746;47.180;9.776;2023-06-14T17:47:23;24.90;65.30
19224;DHT22;9746;47.180;9.776;2023-06-14T17:49:51;24.80;65.00
19224;DHT22;9746;47.180;9.776;2023-06-14T17:52:25;24.60;65.60
19224;DHT22;9746;47.180;9.776;2023-06-14T17:54:54;24.40;66.00
19224;DHT22;9746;47.180;9.776;2023-06-14T17:57:23;24.20;65.90
19224;DHT22;9746;47.180;9.776;2023-06-14T17:59:50;24.20;66.00
19224;DHT22;9746;47.180;9.776;2023-06-14T18:02:18;24.10;66.20
19224;DHT22;9746;47.180;9.776;2023-06-14T18:04:45;24.00;66.70
19224;DHT22;9746;47.180;9.776;2023-06-14T18:07:13;24.00;66.60
19224;DHT22;9746;47.180;9.776;2023-06-14T18:09:40;23.90;66.70
19224;DHT22;9746;47.180;9.776;2023-06-14T18:12:10;23.80;66.50
19224;DHT22;9746;47.180;9.776;2023-06-14T18:14:37;23.70;67.00
19224;DHT22;9746;47.180;9.776;2023-06-14T18:17:05;23.60;66.90
19224;DHT22;9746;47.180;9.776;2023-06-14T18:19:32;23.60;67.30
19224;DHT22;9746;47.180;9.776;2023-06-14T18:22:00;23.60;67.10
19224;DHT22;9746;47.180;9.776;2023-06-14T18:24:27;23.50;67.80
19224;DHT22;9746;47.180;9.776;2023-06-14T18:26:59;23.40;68.00
19224;DHT22;9746;47.180;9.776;2023-06-14T18:29:29;23.30;67.90
19224;DHT22;9746;47.180;9.776;2023-06-14T18:31:57;23.30;68.10
19224;DHT22;9746;47.180;9.776;2023-06-14T18:34:24;23.20;68.40
19224;DHT22;9746;47.180;9.776;2023-06-14T18:36:53;23.10;68.50
19224;DHT22;9746;47.180;9.776;2023-06-14T18:39:23;23.10;68.70
19224;DHT22;9746;47.180;9.776;2023-06-14T18:41:51;23.10;68.90
19224;DHT22;9746;47.180;9.776;2023-06-14T18:44:19;22.90;69.30
19224;DHT22;9746;47.180;9.776;2023-06-14T18:46:49;22.90;69.50
19224;DHT22;9746;47.180;9.776;2023-06-14T18:49:18;22.80;69.60
19224;DHT22;9746;47.180;9.776;2023-06-14T18:51:52;22.80;69.60
19224;DHT22;9746;47.180;9.776;2023-06-14T18:54:20;22.70;69.70
19224;DHT22;9746;47.180;9.776;2023-06-14T18:56:51;22.60;69.80
19224;DHT22;9746;47.180;9.776;2023-06-14T18:59:22;22.50;70.50
19224;DHT22;9746;47.180;9.776;2023-06-14T19:01:54;22.50;70.40
19224;DHT22;9746;47.180;9.776;2023-06-14T19:04:25;22.50;70.90
19224;DHT22;9746;47.180;9.776;2023-06-14T19:07:00;22.40;70.70
19224;DHT22;9746;47.180;9.776;2023-06-14T19:09:28;22.40;71.30
19224;DHT22;9746;47.180;9.776;2023-06-14T19:11:57;22.30;71.20
19224;DHT22;9746;47.180;9.776;2023-06-14T19:14:25;22.20;72.10
19224;DHT22;9746;47.180;9.776;2023-06-14T19:16:54;22.20;75.20
19224;DHT22;9746;47.180;9.776;2023-06-14T19:19:22;22.10;76.80
19224;DHT22;9746;47.180;9.776;2023-06-14T19:21:52;21.90;77.20
19224;DHT22;9746;47.180;9.776;2023-06-14T19:24:20;21.80;77.80
19224;DHT22;9746;47.180;9.776;2023-06-14T19:26:48;21.70;76.30
19224;DHT22;9746;47.180;9.776;2023-06-14T19:29:15;21.60;80.00
19224;DHT22;9746;47.180;9.776;2023-06-14T19:31:44;21.40;79.40
19224;DHT22;9746;47.180;9.776;2023-06-14T19:34:13;21.30;79.50
19224;DHT22;9746;47.180;9.776;2023-06-14T19:36:40;21.20;82.20
19224;DHT22;9746;47.180;9.776;2023-06-14T19:39:08;21.10;83.90
19224;DHT22;9746;47.180;9.776;2023-06-14T19:41:35;20.90;83.80
19224;DHT22;9746;47.180;9.776;2023-06-14T19:44:03;20.70;85.50
19224;DHT22;9746;47.180;9.776;2023-06-14T19:46:31;20.50;85.50
19224;DHT22;9746;47.180;9.776;2023-06-14T19:49:00;20.40;87.60
19224;DHT22;9746;47.180;9.776;2023-06-14T19:51:32;20.30;87.80
19224;DHT22;9746;47.180;9.776;2023-06-14T19:54:01;20.10;86.20
19224;DHT22;9746;47.180;9.776;2023-06-14T19:56:34;20.00;87.50
19224;DHT22;9746;47.180;9.776;2023-06-14T19:59:03;19.90;87.50
19224;DHT22;9746;47.180;9.776;2023-06-14T20:01:34;19.80;89.00
19224;DHT22;9746;47.180;9.776;2023-06-14T20:04:03;19.70;89.40
19224;DHT22;9746;47.180;9.776;2023-06-14T20:06:31;19.60;90.30
19224;DHT22;9746;47.180;9.776;2023-06-14T20:08:59;19.50;89.10
19224;DHT22;9746;47.180;9.776;2023-06-14T20:11:26;19.40;90.20
19224;DHT22;9746;47.180;9.776;2023-06-14T20:13:54;19.40;90.60
19224;DHT22;9746;47.180;9.776;2023-06-14T20:16:21;19.30;90.40
19224;DHT22;9746;47.180;9.776;2023-06-14T20:18:49;19.10;90.70
19224;DHT22;9746;47.180;9.776;2023-06-14T20:21:16;19.00;91.20
19224;DHT22;9746;47.180;9.776;2023-06-14T20:23:45;18.90;92.10
19224;DHT22;9746;47.180;9.776;2023-06-14T20:26:12;18.80;92.30
19224;DHT22;9746;47.180;9.776;2023-06-14T20:28:40;18.70;92.40
19224;DHT22;9746;47.180;9.776;2023-06-14T20:31:07;18.70;92.50
19224;DHT22;9746;47.180;9.776;2023-06-14T20:33:38;18.60;92.70
19224;DHT22;9746;47.180;9.776;2023-06-14T20:36:06;18.50;92.90
19224;DHT22;9746;47.180;9.776;2023-06-14T20:38:34;18.50;93.50
19224;DHT22;9746;47.180;9.776;2023-06-14T20:41:03;18.40;93.70
19224;DHT22;9746;47.180;9.776;2023-06-14T20:43:32;18.30;93.60
